createdAt,value
2022-10-28T00:04:58.919Z,14.43
2022-10-28T00:10:05.558Z,14.42
2022-10-28T00:15:11.946Z,14.42
2022-10-28T00:20:15.835Z,14.38
2022-10-28T00:25:24.655Z,14.38
2022-10-28T00:35:33.982Z,14.21
2022-10-28T00:40:39.540Z,14.15
2022-10-28T00:45:44.327Z,14.12
2022-10-28T00:50:55.120Z,14.10
2022-10-28T00:55:57.460Z,14.14
2022-10-28T01:00:59.404Z,14.20
2022-10-28T01:06:13.137Z,14.24
2022-10-28T01:11:59.845Z,14.24
2022-10-28T01:17:08.661Z,14.21
2022-10-28T01:22:40.811Z,14.14
2022-10-28T01:27:54.944Z,14.05
2022-10-28T01:33:21.169Z,13.98
2022-10-28T01:38:28.837Z,13.93
2022-10-28T01:43:36.829Z,13.93
2022-10-28T01:48:56.754Z,13.96
2022-10-28T01:54:00.141Z,13.96
2022-10-28T01:59:14.948Z,13.95
2022-10-28T02:04:21.448Z,13.97
2022-10-28T02:09:36.680Z,13.97
2022-10-28T02:15:10.884Z,13.97
2022-10-28T02:20:38.638Z,13.95
2022-10-28T02:25:49.414Z,13.91
2022-10-28T02:30:53.888Z,13.84
2022-10-28T02:35:59.735Z,13.79
2022-10-28T02:41:06.991Z,13.77
2022-10-28T02:46:13.813Z,13.77
2022-10-28T02:51:16.213Z,13.78
2022-10-28T02:56:22.527Z,13.77
2022-10-28T03:01:29.293Z,13.76
2022-10-28T03:06:31.515Z,13.71
2022-10-28T03:11:34.119Z,13.67
2022-10-28T03:16:35.969Z,13.62
2022-10-28T03:21:40.066Z,13.57
2022-10-28T03:26:42.111Z,13.54
2022-10-28T03:31:47.892Z,13.49
2022-10-28T03:36:52.025Z,13.47
2022-10-28T03:41:58.489Z,13.45
2022-10-28T03:47:00.300Z,13.42
2022-10-28T03:52:04.109Z,13.39
2022-10-28T03:57:05.867Z,13.31
2022-10-28T04:02:10.125Z,13.26
2022-10-28T04:07:15.020Z,13.23
2022-10-28T04:12:19.678Z,13.16
2022-10-28T04:17:23.837Z,13.03
2022-10-28T04:22:28.005Z,12.98
2022-10-28T04:27:31.755Z,12.96
2022-10-28T04:32:33.602Z,12.95
2022-10-28T04:37:38.646Z,12.92
2022-10-28T04:42:44.961Z,12.88
2022-10-28T04:47:46.727Z,12.86
2022-10-28T04:52:50.951Z,12.85
2022-10-28T04:57:59.440Z,12.86
2022-10-28T05:03:05.195Z,12.85
2022-10-28T05:08:10.855Z,12.84
2022-10-28T05:13:14.957Z,12.81
2022-10-28T05:18:16.965Z,12.79
2022-10-28T05:23:27.149Z,12.78
2022-10-28T05:28:39.839Z,12.81
2022-10-28T05:33:44.087Z,12.84
2022-10-28T05:38:49.737Z,12.86
2022-10-28T05:43:54.347Z,12.89
2022-10-28T05:48:56.431Z,12.91
2022-10-28T05:54:06.515Z,12.92
2022-10-28T05:59:12.789Z,12.95
2022-10-28T06:04:19.465Z,12.98
2022-10-28T06:09:23.841Z,13.00
2022-10-28T06:14:28.748Z,12.99
2022-10-28T06:19:30.580Z,13.01
2022-10-28T06:24:34.872Z,12.98
2022-10-28T06:29:36.665Z,12.99
2022-10-28T06:34:38.465Z,13.02
2022-10-28T06:39:44.696Z,13.03
2022-10-28T06:44:46.477Z,13.03
2022-10-28T06:49:51.331Z,13.00
2022-10-28T06:54:55.209Z,13.04
2022-10-28T07:00:01.633Z,13.09
2022-10-28T07:05:06.336Z,13.14
2022-10-28T07:10:08.415Z,13.19
2022-10-28T07:15:15.383Z,13.24
2022-10-28T07:20:17.316Z,13.31
2022-10-28T07:25:20.180Z,13.38
2022-10-28T07:30:29.264Z,13.48
2022-10-28T07:35:31.654Z,13.56
2022-10-28T07:40:33.544Z,13.66
2022-10-28T07:45:40.050Z,13.75
2022-10-28T07:50:41.938Z,13.87
2022-10-28T07:55:48.174Z,13.99
2022-10-28T08:00:52.177Z,14.10
2022-10-28T08:06:05.601Z,14.20
2022-10-28T08:11:19.106Z,14.29
2022-10-28T08:16:24.337Z,14.40
2022-10-28T08:21:29.087Z,14.51
2022-10-28T08:26:33.349Z,14.61
2022-10-28T08:31:37.332Z,14.75
2022-10-28T08:36:40.219Z,14.88
2022-10-28T08:41:49.873Z,15.02
2022-10-28T08:47:36.296Z,15.17
2022-10-28T08:52:53.832Z,15.34
2022-10-28T08:58:01.612Z,15.52
2022-10-28T09:03:12.761Z,15.66
2022-10-28T09:08:28.365Z,15.82
2022-10-28T09:13:42.043Z,15.97
2022-10-28T09:18:52.406Z,16.12
2022-10-28T09:24:19.162Z,16.25
2022-10-28T09:29:32.980Z,16.35
2022-10-28T09:34:45.147Z,16.49
2022-10-28T09:40:02.680Z,16.69
2022-10-28T09:45:13.097Z,16.91
2022-10-28T09:50:27.494Z,17.20
2022-10-28T09:55:29.668Z,17.45
2022-10-28T10:00:32.128Z,17.66
2022-10-28T10:05:39.302Z,17.94
2022-10-28T10:10:59.591Z,18.10
2022-10-28T10:16:08.011Z,18.18
2022-10-28T10:21:16.337Z,18.29
2022-10-28T10:26:20.215Z,18.39
2022-10-28T10:31:27.387Z,18.36
2022-10-28T10:36:31.705Z,18.35
2022-10-28T10:41:37.146Z,18.43
2022-10-28T10:46:38.902Z,18.60
2022-10-28T10:51:53.093Z,18.90
2022-10-28T10:56:55.153Z,19.22
2022-10-28T11:01:59.785Z,19.28
2022-10-28T11:07:18.337Z,19.17
2022-10-28T11:12:35.647Z,19.17
2022-10-28T11:17:38.549Z,19.20
2022-10-28T11:23:01.730Z,19.23
2022-10-28T11:28:25.742Z,19.37
2022-10-28T11:33:47.813Z,20.01
2022-10-28T11:38:58.804Z,20.67
2022-10-28T11:44:08.779Z,21.16
2022-10-28T11:49:42.376Z,21.07
2022-10-28T11:55:08.550Z,20.78
2022-10-28T12:00:26.145Z,20.61
2022-10-28T12:05:37.442Z,20.44
2022-10-28T12:10:50.444Z,20.33
2022-10-28T12:16:07.379Z,20.20
2022-10-28T12:21:32.650Z,20.15
2022-10-28T12:26:59.433Z,20.12
2022-10-28T12:32:05.867Z,20.09
2022-10-28T12:37:16.241Z,20.08
2022-10-28T12:42:23.372Z,20.07
2022-10-28T12:47:49.958Z,20.21
2022-10-28T12:52:55.777Z,20.68
2022-10-28T12:58:16.178Z,20.93
2022-10-28T13:03:23.593Z,21.29
2022-10-28T13:09:03.925Z,21.23
2022-10-28T13:14:35.779Z,21.13
2022-10-28T13:19:45.766Z,21.02
2022-10-28T13:25:02.476Z,21.67
2022-10-28T13:30:16.749Z,22.04
2022-10-28T13:35:24.001Z,22.16
2022-10-28T13:40:33.956Z,21.75
2022-10-28T13:45:53.803Z,21.44
2022-10-28T13:51:32.219Z,21.14
2022-10-28T13:56:45.923Z,20.95
2022-10-28T14:01:56.731Z,20.82
2022-10-28T14:07:12.801Z,20.68
2022-10-28T14:12:23.008Z,20.55
2022-10-28T14:17:30.964Z,20.40
2022-10-28T14:22:35.669Z,20.26
2022-10-28T14:27:47.081Z,20.16
2022-10-28T14:32:54.229Z,20.09
2022-10-28T14:38:32.936Z,20.02
2022-10-28T14:43:55.862Z,19.97
2022-10-28T14:48:58.924Z,19.96
2022-10-28T14:54:03.941Z,19.89
2022-10-28T14:59:53.412Z,19.81
2022-10-28T15:05:03.270Z,19.73
2022-10-28T15:10:15.871Z,19.64
2022-10-28T15:15:22.623Z,19.57
2022-10-28T15:20:26.912Z,19.50
2022-10-28T15:25:29.930Z,19.40
2022-10-28T15:30:39.898Z,19.22
2022-10-28T15:35:48.942Z,19.14
2022-10-28T15:40:56.294Z,19.10
2022-10-28T15:46:15.354Z,19.02
2022-10-28T15:51:20.198Z,18.98
2022-10-28T15:56:25.458Z,18.98
2022-10-28T16:01:45.853Z,18.94
2022-10-28T16:06:57.647Z,18.92
2022-10-28T16:12:05.770Z,18.93
2022-10-28T16:17:23.671Z,18.91
2022-10-28T16:22:28.059Z,18.86
2022-10-28T16:27:34.189Z,18.83
2022-10-28T16:32:39.825Z,18.82
2022-10-28T16:37:55.513Z,18.80
2022-10-28T16:43:01.830Z,18.81
2022-10-28T16:48:11.087Z,18.77
2022-10-28T16:53:13.103Z,18.76
2022-10-28T16:58:20.668Z,18.67
2022-10-28T17:03:26.892Z,18.61
2022-10-28T17:08:56.532Z,18.52
2022-10-28T17:13:52.125Z,18.50
2022-10-28T17:18:54.469Z,18.45
2022-10-28T17:23:56.654Z,18.37
2022-10-28T17:29:03.315Z,18.32
2022-10-28T17:34:08.253Z,18.27
2022-10-28T17:39:15.741Z,18.18
2022-10-28T17:44:19.762Z,18.12
2022-10-28T17:49:21.727Z,18.09
2022-10-28T17:59:26.874Z,17.98
2022-10-28T18:04:30.691Z,17.93
2022-10-28T18:09:33.051Z,17.87
2022-10-28T18:14:34.958Z,17.80
2022-10-28T18:19:37.099Z,17.79
2022-10-28T18:24:38.943Z,17.76
2022-10-28T18:29:41.739Z,17.71
2022-10-28T18:34:45.030Z,17.66
2022-10-28T18:39:55.102Z,17.60
2022-10-28T18:45:00.188Z,17.52
2022-10-28T18:50:03.060Z,17.46
2022-10-28T18:55:08.240Z,17.41
2022-10-28T19:00:18.364Z,17.34
2022-10-28T19:05:26.983Z,17.27
2022-10-28T19:10:29.093Z,17.25
2022-10-28T19:15:31.288Z,17.21
2022-10-28T19:20:37.233Z,17.17
2022-10-28T19:25:39.575Z,17.13
2022-10-28T19:30:41.756Z,17.09
2022-10-28T19:35:50.175Z,17.05
2022-10-28T19:40:54.678Z,17.05
2022-10-28T19:46:03.873Z,17.01
2022-10-28T19:51:11.949Z,17.00
2022-10-28T20:01:18.553Z,16.99
2022-10-28T20:06:37.063Z,17.00
2022-10-28T20:11:41.727Z,17.00
2022-10-28T20:16:50.971Z,17.00
2022-10-28T20:21:53.134Z,16.98
2022-10-28T20:26:54.959Z,16.93
2022-10-28T20:31:59.065Z,16.97
2022-10-28T20:37:05.972Z,16.96
2022-10-28T20:42:10.068Z,16.91
2022-10-28T20:47:17.826Z,16.90
2022-10-28T20:57:24.600Z,16.80
2022-10-28T21:02:28.495Z,16.69
2022-10-28T21:07:37.673Z,16.67
2022-10-28T21:12:42.196Z,16.63
2022-10-28T21:17:44.143Z,16.56
2022-10-28T21:22:45.951Z,16.47
2022-10-28T21:28:06.312Z,16.38
2022-10-28T21:33:11.694Z,16.29
2022-10-28T21:38:17.135Z,16.19
2022-10-28T21:43:18.924Z,16.11
2022-10-28T21:48:23.524Z,16.00
2022-10-28T21:53:26.036Z,15.93
2022-10-28T21:58:30.095Z,15.83
2022-10-28T22:03:35.072Z,15.73
2022-10-28T22:08:38.952Z,15.62
2022-10-28T22:13:45.089Z,15.55
2022-10-28T22:18:49.242Z,15.48
2022-10-28T22:23:51.299Z,15.41
2022-10-28T22:28:53.325Z,15.34
2022-10-28T22:34:00.282Z,15.19
2022-10-28T22:39:05.560Z,15.12
2022-10-28T22:44:07.687Z,15.04
2022-10-28T22:49:11.993Z,14.97
2022-10-28T22:54:20.616Z,14.89
2022-10-28T22:59:22.375Z,14.83
2022-10-28T23:04:26.550Z,14.78
2022-10-28T23:09:30.544Z,14.71
2022-10-28T23:14:39.115Z,14.61
2022-10-28T23:19:43.130Z,14.55
2022-10-28T23:24:47.090Z,14.43
2022-10-28T23:29:48.927Z,14.31
2022-10-28T23:34:53.019Z,14.25
2022-10-28T23:39:59.323Z,14.19
2022-10-28T23:45:03.353Z,14.12
2022-10-28T23:50:14.916Z,14.09
2022-10-28T23:55:16.718Z,14.02
